WetterOnline ( https://www.wetteronline.de )

Wetter aktuell Thüringer Wald (in 800m)

Aktuelles Wetter: Neuhaus (851m)

6-stündlich | Neueste Meldungen
Ortszeit Temperatur Wetter
Mi, 30.11. 19:00 0.3° C Nebel
Mi, 30.11. 13:00 2.0° C bedeckt
Mi, 30.11. 7:00 1.6° C Nebel
Mi, 30.11. 1:00 1.5° C Nebel
Di, 29.11. 19:00 1.2° C Nebel
Di, 29.11. 13:00 1.3° C Nebel
Di, 29.11. 7:00 0.2° C Nebel
Di, 29.11. 1:00 0.1° C Sprühregen
Ortszeit Temperatur Wetter
Mi, 30.11. 20:00 -0.4° C Nebel
Mi, 30.11. 19:50 -0.4° C Nebel
Mi, 30.11. 19:40 -0.3° C Nebel
Mi, 30.11. 19:30 -0.1° C Nebel
Mi, 30.11. 19:20 -0.1° C Nebel
Mi, 30.11. 19:10 0.0° C Nebel
Mi, 30.11. 19:00 0.3° C Nebel
Mi, 30.11. 18:30 0.7° C Nebel
Mi, 30.11. 18:00 1.0° C Nebel
Mi, 30.11. 17:30 1.3° C Nebel
Mi, 30.11. 17:00 1.4° C bedeckt
Ortszeit Relative Feuchte Sichtweite
Mi, 30.11. 19:00 97% 100 m
Mi, 30.11. 13:00 96% 24 km
Mi, 30.11. 7:00 99% 100 m
Mi, 30.11. 1:00 99% 0.2 km
Di, 29.11. 19:00 98% 0.3 km
Di, 29.11. 13:00 99% 100 m
Di, 29.11. 7:00 99% 100 m
Di, 29.11. 1:00 99% 100 m
Ortszeit Relative Feuchte Sichtweite
Mi, 30.11. 20:00 98% 100 m
Mi, 30.11. 19:50 98% -
Mi, 30.11. 19:40 97% -
Mi, 30.11. 19:30 98% 100 m
Mi, 30.11. 19:20 98% -
Mi, 30.11. 19:10 97% -
Mi, 30.11. 19:00 97% 100 m
Mi, 30.11. 18:30 97% 0.2 km
Mi, 30.11. 18:00 97% 0.2 km
Mi, 30.11. 17:30 97% 0.8 km
Mi, 30.11. 17:00 96% 4.6 km
Ortszeit Niederschlagsmenge Niederschlagsart
Mi, 30.11. 19:00 0.0 l/m2 in 12 Std. -
Mi, 30.11. 13:00 0.0 l/m2 in 6 Std. -
Mi, 30.11. 7:00 0.1 l/m2 in 12 Std. -
Mi, 30.11. 1:00 0.1 l/m2 in 6 Std. Sprühregen
Di, 29.11. 19:00 0.1 l/m2 in 12 Std. Sprühregen
Di, 29.11. 13:00 0.1 l/m2 in 6 Std. Sprühregen
Di, 29.11. 7:00 0.4 l/m2 in 12 Std. Sprühregen
Di, 29.11. 1:00 0.4 l/m2 in 6 Std. Regen
Ortszeit Niederschlagsmenge Niederschlagsart
Mi, 30.11. 20:00 0.0 l/m2 in 1 Std. -
Mi, 30.11. 19:50 keine Meldung -
Mi, 30.11. 19:40 keine Meldung -
Mi, 30.11. 19:30 0.0 l/m2 in 1 Std. -
Mi, 30.11. 19:20 keine Meldung -
Mi, 30.11. 19:10 keine Meldung -
Mi, 30.11. 19:00 0.0 l/m2 in 1 Std. -
Mi, 30.11. 18:30 0.0 l/m2 in 1 Std. -
Mi, 30.11. 18:00 0.0 l/m2 in 1 Std. -
Mi, 30.11. 17:30 0.0 l/m2 in 1 Std. -
Mi, 30.11. 17:00 0.0 l/m2 in 1 Std. -
Ortszeit Stärke Spitze Richtung
km/h Bft. km/h Grad Sektor
Mi, 30.11. 19:00 4 1 11 70° O
Mi, 30.11. 13:00 6 1 13 60° NO
Mi, 30.11. 7:00 4 1 11 250° W
Mi, 30.11. 1:00 6 1 11 200° S
Di, 29.11. 19:00 4 1 18 200° S
Di, 29.11. 13:00 7 2 18 190° S
Di, 29.11. 7:00 11 2 22 190° S
Di, 29.11. 1:00 11 2 22 200° S
Ortszeit Stärke Spitze Richtung
km/h Bft. km/h Grad Sektor
Mi, 30.11. 20:00 7 2 11 70° O
Mi, 30.11. 19:50 7 2 - 70° O
Mi, 30.11. 19:40 4 1 - 60° NO
Mi, 30.11. 19:30 6 1 11 70° O
Mi, 30.11. 19:20 6 1 - 70° O
Mi, 30.11. 19:10 7 2 - 60° NO
Mi, 30.11. 19:00 4 1 11 70° O
Mi, 30.11. 18:30 6 1 9 80° O
Mi, 30.11. 18:00 7 2 11 70° O
Mi, 30.11. 17:30 6 1 11 60° NO
Mi, 30.11. 17:00 6 1 11 50° NO
Ortszeit Untergrenze Bedeckung Gattung
total tief tief mittel hoch
Mi, 30.11. 19:00 <30 m 8/8 0/8 - - -
Mi, 30.11. 13:00 90 m 8/8 8/8 - - -
Mi, 30.11. 7:00 <30 m 8/8 0/8 - - -
Mi, 30.11. 1:00 <30 m 8/8 0/8 - - -
Di, 29.11. 19:00 <30 m 8/8 0/8 - - -
Di, 29.11. 13:00 <30 m 8/8 0/8 - - -
Di, 29.11. 7:00 <30 m 8/8 0/8 - - -
Di, 29.11. 1:00 <30 m 8/8 0/8 - - -
Ortszeit Bedeckungsgrad in Achtel und Wolkenuntergrenze
Mi, 30.11. 20:00 8(<30m)
Mi, 30.11. 19:50 8(<30m)
Mi, 30.11. 19:40 8
Mi, 30.11. 19:30 8(<30m)
Mi, 30.11. 19:20 8(<30m)
Mi, 30.11. 19:10 8
Mi, 30.11. 19:00 8(<30m)
Mi, 30.11. 18:30 8(<30m)
Mi, 30.11. 18:00 8(<30m)
Mi, 30.11. 17:30 8(30m)
Mi, 30.11. 17:00 6(60m) 8(180m) 8(1800m)
Ortszeit Stationsdruck (hPa) Tendenz (hPa in 3 Std.)
Mi, 30.11. 19:00 922 + 0,7
Mi, 30.11. 13:00 922 + 0,1
Mi, 30.11. 7:00 921 + 0,7
Mi, 30.11. 1:00 920 + 0,3
Di, 29.11. 19:00 919 + 1,2
Di, 29.11. 13:00 917 + 0,7
Di, 29.11. 7:00 916 + 0,9
Di, 29.11. 1:00 915 - 0,1
Ortszeit Stationsdruck (hPa) Tendenz (hPa in 3 Std.)
Mi, 30.11. 20:00 923 + 1,0
Mi, 30.11. 19:50 923 keine Meldung
Mi, 30.11. 19:40 923 keine Meldung
Mi, 30.11. 19:30 922 + 0,7
Mi, 30.11. 19:20 922 keine Meldung
Mi, 30.11. 19:10 922 keine Meldung
Mi, 30.11. 19:00 922 + 0,7
Mi, 30.11. 18:30 922 + 0,6
Mi, 30.11. 18:00 922 + 0,4
Mi, 30.11. 17:30 922 + 0,3
Mi, 30.11. 17:00 922 + 0,3
Ortszeit Schneehöhe (cm)
Mi, 30.11. 19:00 0
Mi, 30.11. 13:00 0
Mi, 30.11. 7:00 0
Mi, 30.11. 1:00 0
Di, 29.11. 19:00 0
Di, 29.11. 13:00 0
Di, 29.11. 7:00 0
Di, 29.11. 1:00 0
Ortszeit Schneehöhe (cm)
Mi, 30.11. 20:00 0
Mi, 30.11. 19:50 0
Mi, 30.11. 19:40 0
Mi, 30.11. 19:30 0
Mi, 30.11. 19:20 0
Mi, 30.11. 19:10 0
Mi, 30.11. 19:00 0
Mi, 30.11. 18:30 0
Mi, 30.11. 18:00 0
Mi, 30.11. 17:30 0
Mi, 30.11. 17:00 0
Link zu dieser Seite / Seite empfehlen

Das Wetter in ...